createdAt,value
2017-05-03T00:02:20.789Z,7.70
2017-05-03T00:04:50.093Z,7.70
2017-05-03T00:07:19.062Z,7.60
2017-05-03T00:09:48.023Z,7.50
2017-05-03T00:12:18.094Z,7.40
2017-05-03T00:14:47.066Z,7.40
2017-05-03T00:17:16.018Z,7.40
2017-05-03T00:19:45.738Z,7.40
2017-05-03T00:22:14.742Z,7.40
2017-05-03T00:24:43.999Z,7.50
2017-05-03T00:27:13.611Z,7.50
2017-05-03T00:29:42.609Z,7.60
2017-05-03T00:32:12.314Z,7.50
2017-05-03T00:34:41.924Z,7.50
2017-05-03T00:37:11.283Z,7.50
2017-05-03T00:39:40.231Z,7.40
2017-05-03T00:42:09.179Z,7.40
2017-05-03T00:44:38.148Z,7.40
2017-05-03T00:47:07.093Z,7.30
2017-05-03T00:49:36.340Z,7.30
2017-05-03T00:52:05.294Z,7.30
2017-05-03T00:54:34.268Z,7.20
2017-05-03T00:57:04.240Z,7.20
2017-05-03T00:59:33.190Z,7.10
2017-05-03T01:02:02.138Z,7.10
2017-05-03T01:04:31.518Z,7.10
2017-05-03T01:07:00.469Z,7.10
2017-05-03T01:09:29.435Z,7.10
2017-05-03T01:11:59.413Z,7.00
2017-05-03T01:14:28.383Z,7.00
2017-05-03T01:16:57.337Z,7.00
2017-05-03T01:19:26.302Z,6.90
2017-05-03T01:21:55.265Z,6.90
2017-05-03T01:24:24.577Z,6.90
2017-05-03T01:26:53.552Z,6.90
2017-05-03T01:29:22.490Z,6.80
2017-05-03T01:31:51.756Z,6.80
2017-05-03T01:34:20.710Z,6.80
2017-05-03T01:36:49.673Z,6.80
2017-05-03T01:39:19.403Z,6.70
2017-05-03T01:41:48.354Z,6.60
2017-05-03T01:44:18.437Z,6.60
2017-05-03T01:46:47.377Z,6.60
2017-05-03T01:49:17.072Z,6.50
2017-05-03T01:51:46.053Z,6.60
2017-05-03T01:54:15.001Z,6.50
2017-05-03T01:56:44.224Z,6.60
2017-05-03T01:59:13.177Z,6.60
2017-05-03T02:01:42.137Z,6.60
2017-05-03T02:04:12.217Z,6.60
2017-05-03T02:06:41.188Z,6.70
2017-05-03T02:09:10.149Z,6.70
2017-05-03T02:11:40.117Z,6.70
2017-05-03T02:14:09.063Z,6.70
2017-05-03T02:16:38.019Z,6.70
2017-05-03T02:19:06.985Z,6.70
2017-05-03T02:21:35.957Z,6.70
2017-05-03T02:24:05.197Z,6.70
2017-05-03T02:26:34.161Z,6.70
2017-05-03T02:29:03.120Z,6.60
2017-05-03T02:31:32.385Z,6.60
2017-05-03T02:34:01.340Z,6.60
2017-05-03T02:36:30.304Z,6.60
2017-05-03T02:38:59.177Z,6.60
2017-05-03T02:41:28.253Z,6.70
2017-05-03T02:43:58.319Z,6.70
2017-05-03T02:46:27.285Z,6.70
2017-05-03T02:48:56.227Z,6.70
2017-05-03T02:51:25.185Z,6.70
2017-05-03T02:53:54.143Z,6.60
2017-05-03T02:56:23.495Z,6.60
2017-05-03T02:58:52.459Z,6.50
2017-05-03T03:01:21.392Z,6.50
2017-05-03T03:03:50.376Z,6.50
2017-05-03T03:06:19.328Z,6.50
2017-05-03T03:08:48.643Z,6.50
2017-05-03T03:11:17.620Z,6.60
2017-05-03T03:13:46.562Z,6.60
2017-05-03T03:16:16.328Z,6.60
2017-05-03T03:18:45.305Z,6.60
2017-05-03T03:21:14.532Z,6.70
2017-05-03T03:23:44.286Z,6.70
2017-05-03T03:26:13.241Z,6.70
2017-05-03T03:28:42.536Z,6.80
2017-05-03T03:31:11.514Z,6.70
2017-05-03T03:33:40.488Z,6.60
2017-05-03T03:36:09.468Z,6.60
2017-05-03T03:38:38.439Z,6.60
2017-05-03T03:41:07.762Z,6.50
2017-05-03T03:43:36.736Z,6.60
2017-05-03T03:46:05.686Z,6.60
2017-05-03T03:48:34.963Z,6.70
2017-05-03T03:51:04.132Z,6.70
2017-05-03T03:53:33.085Z,6.80
2017-05-03T03:56:02.798Z,6.80
2017-05-03T03:58:32.508Z,6.80
2017-05-03T04:01:02.550Z,6.80
2017-05-03T04:03:31.515Z,6.80
2017-05-03T04:06:01.221Z,6.70
2017-05-03T04:08:30.922Z,6.70
2017-05-03T04:11:00.611Z,6.70
2017-05-03T04:13:29.904Z,6.80
2017-05-03T04:15:58.895Z,6.80
2017-05-03T04:18:27.833Z,6.80
2017-05-03T04:20:57.111Z,6.80
2017-05-03T04:23:26.718Z,6.90
2017-05-03T04:25:55.714Z,6.90
2017-05-03T04:28:25.796Z,6.90
2017-05-03T04:30:54.744Z,6.90
2017-05-03T04:33:23.696Z,6.90
2017-05-03T04:35:52.968Z,6.80
2017-05-03T04:38:21.937Z,6.80
2017-05-03T04:40:50.892Z,6.70
2017-05-03T04:43:20.623Z,6.70
2017-05-03T04:45:49.571Z,6.70
2017-05-03T04:48:18.842Z,6.70
2017-05-03T04:50:47.787Z,6.70
2017-05-03T04:53:16.732Z,6.80
2017-05-03T04:55:46.038Z,6.90
2017-05-03T04:58:15.633Z,6.90
2017-05-03T05:00:44.586Z,7.00
2017-05-03T05:03:13.917Z,7.10
2017-05-03T05:05:42.866Z,7.30
2017-05-03T05:08:11.829Z,7.40
2017-05-03T05:10:41.566Z,7.40
2017-05-03T05:13:10.518Z,7.50
2017-05-03T05:15:39.813Z,7.60
2017-05-03T05:18:08.780Z,7.60
2017-05-03T05:20:37.728Z,7.70
2017-05-03T05:23:06.874Z,7.70
2017-05-03T05:25:36.587Z,7.70
2017-05-03T05:28:05.533Z,7.80
2017-05-03T05:30:34.785Z,7.90
2017-05-03T05:33:03.751Z,7.90
2017-05-03T05:35:32.729Z,8.00
2017-05-03T05:38:02.014Z,8.10
2017-05-03T05:40:30.972Z,8.10
2017-05-03T05:43:00.669Z,8.10
2017-05-03T05:45:29.754Z,8.20
2017-05-03T05:47:58.775Z,8.30
2017-05-03T05:50:28.503Z,8.40
2017-05-03T05:52:57.565Z,8.60
2017-05-03T05:55:27.562Z,8.60
2017-05-03T05:57:56.505Z,8.70
2017-05-03T06:00:29.418Z,8.80
2017-05-03T06:02:58.376Z,9.00
2017-05-03T06:05:27.347Z,9.50
2017-05-03T06:07:57.063Z,10.10
2017-05-03T06:10:26.015Z,10.70
2017-05-03T06:12:55.282Z,11.30
2017-05-03T06:15:24.249Z,11.70
2017-05-03T06:17:53.205Z,12.10
2017-05-03T06:20:23.281Z,12.40
2017-05-03T06:22:52.235Z,12.60
2017-05-03T06:25:21.196Z,12.80
2017-05-03T06:27:50.184Z,12.80
2017-05-03T06:30:32.105Z,13.00
2017-05-03T06:33:01.331Z,13.10
2017-05-03T06:35:30.375Z,13.30
2017-05-03T06:38:00.126Z,13.30
2017-05-03T06:40:29.385Z,13.30
2017-05-03T06:42:59.093Z,13.30
2017-05-03T06:45:29.166Z,13.30
2017-05-03T06:47:58.127Z,13.40
2017-05-03T06:50:27.091Z,13.50
2017-05-03T06:52:57.155Z,13.60
2017-05-03T06:55:26.124Z,13.80
2017-05-03T06:57:55.099Z,14.00
2017-05-03T07:00:24.081Z,14.20
2017-05-03T07:02:53.799Z,14.20
2017-05-03T07:05:23.658Z,14.30
2017-05-03T07:07:52.641Z,14.50
2017-05-03T07:10:21.610Z,14.50
2017-05-03T07:12:50.959Z,14.60
2017-05-03T07:15:19.847Z,14.70
2017-05-03T07:17:48.829Z,14.70
2017-05-03T07:20:18.067Z,14.60
2017-05-03T07:22:47.756Z,14.20
2017-05-03T07:25:17.499Z,13.80
2017-05-03T07:27:46.435Z,13.50
2017-05-03T07:30:15.390Z,13.30
2017-05-03T07:32:44.729Z,13.10
2017-05-03T07:35:13.697Z,12.90
2017-05-03T07:37:42.675Z,12.80
2017-05-03T07:40:11.999Z,12.70
2017-05-03T07:42:40.974Z,12.50
2017-05-03T07:45:09.957Z,12.50
2017-05-03T07:47:39.372Z,12.50
2017-05-03T07:50:08.347Z,12.70
2017-05-03T07:52:37.304Z,12.80
2017-05-03T07:55:06.315Z,13.00
2017-05-03T07:57:35.272Z,13.10
2017-05-03T08:00:05.371Z,13.00
2017-05-03T08:02:34.325Z,12.80
2017-05-03T08:05:03.306Z,12.80
2017-05-03T08:07:32.278Z,12.80
2017-05-03T08:10:01.246Z,12.90
2017-05-03T08:12:31.895Z,12.90
2017-05-03T08:15:00.847Z,12.80
2017-05-03T08:17:30.145Z,12.70
2017-05-03T08:19:59.038Z,12.70
2017-05-03T08:22:28.046Z,12.80
2017-05-03T08:24:57.025Z,12.90
2017-05-03T08:27:25.998Z,13.10
2017-05-03T08:29:55.294Z,13.10
2017-05-03T08:32:24.262Z,13.20
2017-05-03T08:34:53.253Z,13.30
2017-05-03T08:37:22.231Z,13.50
2017-05-03T08:39:51.201Z,13.60
2017-05-03T08:42:21.284Z,13.70
2017-05-03T08:44:50.179Z,13.60
2017-05-03T08:47:19.945Z,13.60
2017-05-03T08:49:50.018Z,13.70
2017-05-03T08:52:19.725Z,13.70
2017-05-03T08:54:49.809Z,13.70
2017-05-03T08:57:18.777Z,13.70
2017-05-03T08:59:47.755Z,13.60
2017-05-03T09:02:16.749Z,13.60
2017-05-03T09:04:45.745Z,13.70
2017-05-03T09:07:14.848Z,13.80
2017-05-03T09:09:43.829Z,14.10
2017-05-03T09:12:13.159Z,14.20
2017-05-03T09:14:42.146Z,14.10
2017-05-03T09:17:11.029Z,14.20
2017-05-03T09:19:40.353Z,14.30
2017-05-03T09:22:09.311Z,14.50
2017-05-03T09:24:38.269Z,14.60
2017-05-03T09:27:07.262Z,14.60
2017-05-03T09:29:36.976Z,14.60
2017-05-03T09:32:06.247Z,14.50
2017-05-03T09:34:35.264Z,14.40
2017-05-03T09:37:04.144Z,14.40
2017-05-03T09:39:33.183Z,14.40
2017-05-03T09:42:02.131Z,14.50
2017-05-03T09:44:31.485Z,14.50
2017-05-03T09:47:00.460Z,14.60
2017-05-03T09:49:29.451Z,14.60
2017-05-03T09:51:58.485Z,14.60
2017-05-03T09:54:27.440Z,14.50
2017-05-03T09:56:56.761Z,14.60
2017-05-03T09:59:25.719Z,14.70
2017-05-03T10:01:54.667Z,14.70
2017-05-03T10:04:24.381Z,14.80
2017-05-03T10:06:54.134Z,14.90
2017-05-03T10:09:23.460Z,15.00
2017-05-03T10:11:52.440Z,15.20
2017-05-03T10:14:21.449Z,15.20
2017-05-03T10:16:50.415Z,15.10
2017-05-03T10:19:19.389Z,15.10
2017-05-03T10:21:48.700Z,15.00
2017-05-03T10:24:17.688Z,15.00
2017-05-03T10:26:46.655Z,15.00
2017-05-03T10:29:15.643Z,15.00
2017-05-03T10:31:44.598Z,15.20
2017-05-03T10:34:13.925Z,15.30
2017-05-03T10:36:42.893Z,15.50
2017-05-03T10:39:12.603Z,15.50
2017-05-03T10:41:42.335Z,15.40
2017-05-03T10:44:11.295Z,15.40
2017-05-03T10:46:40.664Z,15.40
2017-05-03T10:49:09.617Z,15.30
2017-05-03T10:51:38.568Z,15.40
2017-05-03T10:54:07.877Z,15.50
2017-05-03T10:56:37.595Z,15.60
2017-05-03T10:59:07.329Z,15.80
2017-05-03T11:01:36.592Z,15.90
2017-05-03T11:04:06.333Z,16.10
2017-05-03T11:06:35.303Z,16.10
2017-05-03T11:09:04.299Z,16.00
2017-05-03T11:11:34.010Z,15.80
2017-05-03T11:14:03.287Z,15.60
2017-05-03T11:16:33.002Z,15.50
2017-05-03T11:19:03.081Z,15.50
2017-05-03T11:21:32.005Z,15.50
2017-05-03T11:24:01.624Z,15.60
2017-05-03T11:26:30.657Z,15.80
2017-05-03T11:28:59.651Z,16.00
2017-05-03T11:31:28.673Z,16.20
2017-05-03T11:33:57.630Z,16.30
2017-05-03T11:36:26.661Z,16.40
2017-05-03T11:38:55.622Z,16.40
2017-05-03T11:41:24.599Z,16.40
2017-05-03T11:43:53.560Z,16.40
2017-05-03T11:46:22.900Z,16.30
2017-05-03T11:48:51.869Z,16.10
2017-05-03T11:51:20.875Z,16.00
2017-05-03T11:53:50.169Z,16.00
2017-05-03T11:56:19.129Z,16.10
2017-05-03T11:58:48.106Z,16.10
2017-05-03T12:01:17.170Z,16.10
2017-05-03T12:03:46.153Z,16.10
2017-05-03T12:06:15.454Z,16.00
2017-05-03T12:08:44.373Z,16.10
2017-05-03T12:11:13.349Z,16.00
2017-05-03T12:13:42.618Z,16.10
2017-05-03T12:16:11.597Z,16.30
2017-05-03T12:18:40.566Z,16.50
2017-05-03T12:21:09.843Z,16.80
2017-05-03T12:23:39.590Z,17.30
2017-05-03T12:26:08.467Z,18.00
2017-05-03T12:28:39.144Z,18.20
2017-05-03T12:31:08.126Z,18.30
2017-05-03T12:33:37.124Z,18.30
2017-05-03T12:36:06.141Z,18.30
2017-05-03T12:38:35.149Z,18.30
2017-05-03T12:41:04.126Z,18.30
2017-05-03T12:43:33.847Z,18.40
2017-05-03T12:46:03.547Z,18.70
2017-05-03T12:48:33.633Z,19.10
2017-05-03T12:51:02.606Z,19.30
2017-05-03T12:53:31.578Z,19.60
2017-05-03T12:56:00.498Z,19.80
2017-05-03T12:58:29.499Z,20.10
2017-05-03T13:00:58.551Z,20.60
2017-05-03T13:03:27.501Z,21.10
2017-05-03T13:05:56.885Z,21.20
2017-05-03T13:08:25.846Z,21.30
2017-05-03T13:10:54.797Z,21.30
2017-05-03T13:13:24.517Z,21.50
2017-05-03T13:15:53.460Z,21.60
2017-05-03T13:18:22.683Z,21.10
2017-05-03T13:20:52.369Z,20.40
2017-05-03T13:23:21.344Z,19.60
2017-05-03T13:25:50.326Z,19.70
2017-05-03T13:28:19.303Z,20.30
2017-05-03T13:30:48.273Z,20.60
2017-05-03T13:33:17.235Z,20.70
2017-05-03T13:35:46.200Z,20.90
2017-05-03T13:38:15.811Z,21.00
2017-05-03T13:40:45.100Z,21.40
2017-05-03T13:43:14.047Z,21.90
2017-05-03T13:45:43.011Z,22.40
2017-05-03T13:48:11.995Z,23.00
2017-05-03T13:50:41.139Z,23.00
2017-05-03T13:53:10.118Z,22.30
2017-05-03T13:55:39.082Z,21.60
2017-05-03T13:58:09.126Z,21.10
2017-05-03T14:00:38.138Z,20.60
2017-05-03T14:03:07.102Z,20.00
2017-05-03T14:05:36.484Z,19.40
2017-05-03T14:08:06.168Z,18.90
2017-05-03T14:10:35.144Z,18.60
2017-05-03T14:13:04.174Z,19.10
2017-05-03T14:15:33.163Z,20.00
2017-05-03T14:18:03.241Z,20.70
2017-05-03T14:20:32.226Z,21.50
2017-05-03T14:23:01.180Z,22.20
2017-05-03T14:25:30.186Z,22.70
2017-05-03T14:27:59.150Z,23.20
2017-05-03T14:30:28.422Z,23.80
2017-05-03T14:32:57.380Z,23.90
2017-05-03T14:35:26.346Z,23.70
2017-05-03T14:37:55.319Z,23.50
2017-05-03T14:40:24.273Z,23.70
2017-05-03T14:42:53.577Z,24.00
2017-05-03T14:45:22.557Z,24.40
2017-05-03T14:47:51.528Z,24.70
2017-05-03T14:50:20.854Z,24.50
2017-05-03T14:52:49.798Z,24.20
2017-05-03T14:55:18.793Z,23.90
2017-05-03T14:57:48.141Z,23.50
2017-05-03T15:00:17.440Z,22.70
2017-05-03T15:02:46.400Z,22.10
2017-05-03T15:05:15.691Z,21.90
2017-05-03T15:07:44.687Z,22.20
2017-05-03T15:10:13.652Z,22.30
2017-05-03T15:12:43.016Z,22.10
2017-05-03T15:15:11.968Z,21.70
2017-05-03T15:17:40.949Z,21.10
2017-05-03T15:20:10.283Z,20.70
2017-05-03T15:22:39.256Z,20.30
2017-05-03T15:25:08.237Z,19.70
2017-05-03T15:27:37.230Z,19.30
2017-05-03T15:30:06.203Z,19.10
2017-05-03T15:32:35.161Z,18.90
2017-05-03T15:35:04.878Z,18.70
2017-05-03T15:37:34.899Z,18.60
2017-05-03T15:40:04.601Z,18.40
2017-05-03T15:42:34.324Z,18.20
2017-05-03T15:45:03.671Z,18.10
2017-05-03T15:47:32.639Z,18.00
2017-05-03T15:50:01.600Z,18.10
2017-05-03T15:52:30.586Z,18.20
2017-05-03T15:55:00.206Z,18.10
2017-05-03T15:57:29.253Z,18.00
2017-05-03T15:59:58.238Z,17.80
2017-05-03T16:02:27.442Z,17.70
2017-05-03T16:04:56.437Z,17.50
2017-05-03T16:07:25.413Z,17.40
2017-05-03T16:09:54.818Z,17.30
2017-05-03T16:12:23.787Z,17.10
2017-05-03T16:14:52.761Z,17.00
2017-05-03T16:17:21.733Z,16.90
2017-05-03T16:19:50.696Z,16.80
2017-05-03T16:22:20.684Z,16.70
2017-05-03T16:24:49.800Z,16.60
2017-05-03T16:27:18.801Z,16.50
2017-05-03T16:29:48.840Z,16.30
2017-05-03T16:32:17.833Z,16.20
2017-05-03T16:34:46.810Z,16.10
2017-05-03T16:37:16.893Z,16.00
2017-05-03T16:39:45.853Z,16.00
2017-05-03T16:42:14.813Z,16.00
2017-05-03T16:44:44.030Z,16.00
2017-05-03T16:47:12.981Z,16.00
2017-05-03T16:49:43.000Z,16.10
2017-05-03T16:52:12.704Z,16.10
2017-05-03T16:54:41.654Z,16.30
2017-05-03T16:57:10.972Z,16.50
2017-05-03T16:59:39.939Z,16.80
2017-05-03T17:02:08.892Z,17.00
2017-05-03T17:04:38.248Z,17.10
2017-05-03T17:07:07.231Z,17.20
2017-05-03T17:09:36.369Z,17.10
2017-05-03T17:12:05.700Z,17.10
2017-05-03T17:14:34.673Z,17.30
2017-05-03T17:17:03.642Z,17.30
2017-05-03T17:19:33.376Z,17.40
2017-05-03T17:22:02.363Z,17.20
2017-05-03T17:24:31.669Z,17.00
2017-05-03T17:27:00.624Z,16.60
2017-05-03T17:29:29.589Z,16.30
2017-05-03T17:31:58.994Z,16.00
2017-05-03T17:34:27.961Z,15.80
2017-05-03T17:36:56.942Z,15.60
2017-05-03T17:39:26.217Z,15.50
2017-05-03T17:41:55.201Z,15.30
2017-05-03T17:44:24.907Z,15.20
2017-05-03T17:46:54.997Z,15.00
2017-05-03T17:49:23.883Z,14.80
2017-05-03T17:51:52.894Z,14.70
2017-05-03T17:54:22.983Z,14.50
2017-05-03T17:56:51.961Z,14.50
2017-05-03T17:59:20.945Z,14.40
2017-05-03T18:01:49.963Z,14.40
2017-05-03T18:04:18.941Z,14.30
2017-05-03T18:06:48.241Z,14.20
2017-05-03T18:09:17.237Z,14.10
2017-05-03T18:11:46.206Z,14.00
2017-05-03T18:14:15.504Z,13.90
2017-05-03T18:16:44.486Z,13.80
2017-05-03T18:19:13.472Z,13.70
2017-05-03T18:21:42.447Z,13.60
2017-05-03T18:24:11.442Z,13.60
2017-05-03T18:26:40.707Z,13.60
2017-05-03T18:29:09.795Z,13.50
2017-05-03T18:31:38.800Z,13.50
2017-05-03T18:34:08.529Z,13.40
2017-05-03T18:36:37.500Z,13.40
2017-05-03T18:39:06.601Z,13.30
2017-05-03T18:41:35.600Z,13.30
2017-05-03T18:44:05.677Z,13.20
2017-05-03T18:46:34.651Z,13.20
2017-05-03T18:49:03.645Z,13.10
2017-05-03T18:51:32.658Z,13.00
2017-05-03T18:54:02.397Z,13.00
2017-05-03T18:56:31.445Z,13.00
2017-05-03T18:59:00.459Z,12.90
2017-05-03T19:01:29.845Z,12.90
2017-05-03T19:03:58.866Z,12.80
2017-05-03T19:06:28.637Z,12.70
2017-05-03T19:08:57.975Z,12.60
2017-05-03T19:11:27.724Z,12.50
2017-05-03T19:13:56.730Z,12.50
2017-05-03T19:16:25.771Z,12.40
2017-05-03T19:18:54.773Z,12.40
2017-05-03T19:21:23.765Z,12.30
2017-05-03T19:23:52.827Z,12.20
2017-05-03T19:26:22.153Z,12.10
2017-05-03T19:28:51.164Z,12.00
2017-05-03T19:31:20.185Z,11.90
2017-05-03T19:33:49.511Z,11.90
2017-05-03T19:36:18.689Z,11.80
2017-05-03T19:38:47.666Z,11.70
2017-05-03T19:41:16.673Z,11.60
2017-05-03T19:43:45.639Z,11.60
2017-05-03T19:46:14.646Z,11.50
2017-05-03T19:48:43.638Z,11.50
2017-05-03T19:51:12.673Z,11.40
2017-05-03T19:53:42.402Z,11.40
2017-05-03T19:56:11.451Z,11.30
2017-05-03T19:58:40.877Z,11.30
2017-05-03T20:01:09.858Z,11.20
2017-05-03T20:03:38.846Z,11.10
2017-05-03T20:06:08.415Z,11.10
2017-05-03T20:08:38.698Z,10.90
2017-05-03T20:11:08.023Z,10.90
2017-05-03T20:13:37.013Z,10.90
2017-05-03T20:16:05.966Z,10.80
2017-05-03T20:18:35.974Z,10.80
2017-05-03T20:21:05.682Z,10.70
2017-05-03T20:23:35.783Z,10.70
2017-05-03T20:26:04.770Z,10.70
2017-05-03T20:28:33.820Z,10.70
2017-05-03T20:31:03.086Z,10.70
2017-05-03T20:33:32.846Z,10.60
2017-05-03T20:36:01.816Z,10.60
2017-05-03T20:38:31.163Z,10.50
2017-05-03T20:41:00.169Z,10.50
2017-05-03T20:43:29.920Z,10.40
2017-05-03T20:45:59.204Z,10.40
2017-05-03T20:48:28.188Z,10.40
2017-05-03T20:50:57.161Z,10.30
2017-05-03T20:53:26.895Z,10.20
2017-05-03T20:55:55.875Z,10.20
2017-05-03T20:58:25.143Z,10.20
2017-05-03T21:00:54.112Z,10.10
2017-05-03T21:03:23.135Z,10.10
2017-05-03T21:05:52.864Z,10.00
2017-05-03T21:08:21.830Z,10.00
2017-05-03T21:10:50.823Z,9.90
2017-05-03T21:13:19.773Z,9.80
2017-05-03T21:15:49.018Z,9.80
2017-05-03T21:18:18.708Z,9.70
2017-05-03T21:20:47.665Z,9.70
2017-05-03T21:23:16.555Z,9.60
2017-05-03T21:25:45.557Z,9.50
2017-05-03T21:28:14.802Z,9.50
2017-05-03T21:30:44.516Z,9.50
2017-05-03T21:33:14.219Z,9.50
2017-05-03T21:35:44.497Z,9.40
2017-05-03T21:38:13.937Z,9.40
2017-05-03T21:40:44.005Z,9.40
2017-05-03T21:43:12.961Z,9.30
2017-05-03T21:45:41.922Z,9.30
2017-05-03T21:48:10.896Z,9.30
2017-05-03T21:50:39.865Z,9.20
2017-05-03T21:53:08.866Z,9.20
2017-05-03T21:55:37.828Z,9.10
2017-05-03T21:58:07.171Z,9.00
2017-05-03T22:00:36.118Z,9.00
2017-05-03T22:03:05.085Z,8.90
2017-05-03T22:05:34.433Z,8.90
2017-05-03T22:08:04.183Z,8.80
2017-05-03T22:10:33.907Z,8.80
2017-05-03T22:13:02.885Z,8.80
2017-05-03T22:15:32.615Z,8.80
2017-05-03T22:18:01.853Z,8.80
2017-05-03T22:20:30.829Z,8.80
2017-05-03T22:22:59.786Z,8.70
2017-05-03T22:25:28.780Z,8.70
2017-05-03T22:27:57.725Z,8.70
2017-05-03T22:30:26.740Z,8.70
2017-05-03T22:32:56.434Z,8.70
2017-05-03T22:35:25.425Z,8.70
2017-05-03T22:37:54.381Z,8.70
2017-05-03T22:40:23.358Z,8.70
2017-05-03T22:42:52.337Z,8.70
2017-05-03T22:45:21.681Z,8.70
2017-05-03T22:47:50.659Z,8.70
2017-05-03T22:50:19.640Z,8.70
2017-05-03T22:52:48.626Z,8.70
2017-05-03T22:55:17.586Z,8.70
2017-05-03T22:57:46.836Z,8.70
2017-05-03T23:00:15.806Z,8.80
2017-05-03T23:02:44.758Z,8.80
2017-05-03T23:05:14.474Z,8.70
2017-05-03T23:07:44.112Z,8.80
2017-05-03T23:10:13.210Z,8.80
2017-05-03T23:12:42.188Z,8.80
2017-05-03T23:15:11.432Z,8.80
2017-05-03T23:17:40.419Z,8.90
2017-05-03T23:20:12.640Z,8.90
2017-05-03T23:22:41.572Z,8.90
2017-05-03T23:25:10.514Z,8.90
2017-05-03T23:27:39.776Z,8.80
2017-05-03T23:30:08.717Z,8.80
2017-05-03T23:32:37.682Z,8.70
2017-05-03T23:35:06.930Z,8.70
2017-05-03T23:37:36.661Z,8.60
2017-05-03T23:40:05.614Z,8.60
2017-05-03T23:42:34.930Z,8.50
2017-05-03T23:45:03.877Z,8.50
2017-05-03T23:47:32.835Z,8.40
2017-05-03T23:50:02.089Z,8.40
2017-05-03T23:52:31.076Z,8.30
2017-05-03T23:55:01.278Z,8.30
2017-05-03T23:57:30.631Z,8.30
2017-05-03T23:59:59.613Z,8.30
